AWC78E EFHK-LGAV
Flight info
| Callsign | AWC78E |
|---|---|
| Flight time | 3h 32m |
| Altitude | 38000 |
| Route | KOIVU DCT LARTI DCT NAVOT DCT LUTAL DCT BERIL/N0457F370 DCT SUWGI/N0456F380 DCT TITUV M985 SUTIK DCT LOGDA/N0453F390 DCT KSC DCT NARKA DCT ORA DCT ADUKU DCT BAVMA DCT EVRIK DCT OLMIP DCT EKNAB DCT SODGO DCT OVDOT DCT LOMOS/N0451F380 DCT BOBVO DCT LETNI/N0450F390 DCT MAKED DCT SIGFO UM749 ROPOX |
| Aircraft | A21N/M-SDE2E3FGHIRWXY/LB1 |
Departure
| Time | 2026-05-06 21:24 |
|---|---|
| Airport | Helsinki Vantaa Airport (EFHK) |
Arrival
| Time | 2026-05-07 00:56 |
|---|---|
| Airport | Athens Eleftherios Venizelos International Airport (LGAV) |
| Time | Latitude | Longitude | Altitude | Speed | Heading |
|---|---|---|---|---|---|
| 2026-05-06 20:22 | 60.31505 | 24.95725 | 172 ft | 0 kts | 137° |
| 2026-05-06 21:10 | 60.31507 | 24.95720 | 172 ft | 3 kts | 137° |
| 2026-05-06 21:10 | 60.31523 | 24.95692 | 172 ft | 3 kts | 137° |
| 2026-05-06 21:11 | 60.31538 | 24.95664 | 172 ft | 3 kts | 132° |
| 2026-05-06 21:11 | 60.31549 | 24.95631 | 172 ft | 3 kts | 112° |
| 2026-05-06 21:11 | 60.31553 | 24.95594 | 172 ft | 3 kts | 80° |
| 2026-05-06 21:11 | 60.31547 | 24.95562 | 172 ft | 2 kts | 47° |
| 2026-05-06 21:12 | 60.31546 | 24.95561 | 172 ft | 0 kts | 47° |
| 2026-05-06 21:13 | 60.31550 | 24.95569 | 172 ft | 2 kts | 47° |
| 2026-05-06 21:13 | 60.31562 | 24.95597 | 172 ft | 3 kts | 48° |
| 2026-05-06 21:14 | 60.31581 | 24.95640 | 172 ft | 5 kts | 49° |
| 2026-05-06 21:14 | 60.31614 | 24.95691 | 172 ft | 8 kts | 25° |
| 2026-05-06 21:14 | 60.31668 | 24.95771 | 172 ft | 12 kts | 46° |
| 2026-05-06 21:14 | 60.31728 | 24.95907 | 172 ft | 14 kts | 49° |
| 2026-05-06 21:15 | 60.31794 | 24.96059 | 172 ft | 15 kts | 47° |
| 2026-05-06 21:15 | 60.31882 | 24.96115 | 172 ft | 15 kts | 331° |
| 2026-05-06 21:15 | 60.31927 | 24.96026 | 173 ft | 8 kts | 319° |
| 2026-05-06 21:15 | 60.31981 | 24.96067 | 174 ft | 10 kts | 48° |
| 2026-05-06 21:16 | 60.32031 | 24.96183 | 174 ft | 12 kts | 50° |
| 2026-05-06 21:16 | 60.32084 | 24.96314 | 173 ft | 13 kts | 49° |
| 2026-05-06 21:16 | 60.32148 | 24.96451 | 173 ft | 14 kts | 46° |
| 2026-05-06 21:16 | 60.32218 | 24.96599 | 173 ft | 15 kts | 47° |
| 2026-05-06 21:17 | 60.32260 | 24.96685 | 172 ft | 7 kts | 25° |
| 2026-05-06 21:17 | 60.32307 | 24.96658 | 173 ft | 8 kts | 324° |
| 2026-05-06 21:17 | 60.32340 | 24.96627 | 176 ft | 4 kts | 330° |
| 2026-05-06 21:17 | 60.32375 | 24.96587 | 179 ft | 7 kts | 330° |
| 2026-05-06 21:18 | 60.32422 | 24.96533 | 180 ft | 9 kts | 331° |
| 2026-05-06 21:18 | 60.32478 | 24.96471 | 179 ft | 10 kts | 332° |
| 2026-05-06 21:18 | 60.32540 | 24.96399 | 179 ft | 11 kts | 330° |
| 2026-05-06 21:18 | 60.32607 | 24.96317 | 178 ft | 12 kts | 330° |
| 2026-05-06 21:19 | 60.32681 | 24.96237 | 177 ft | 13 kts | 332° |
| 2026-05-06 21:19 | 60.32762 | 24.96148 | 178 ft | 14 kts | 329° |
| 2026-05-06 21:19 | 60.32851 | 24.96037 | 179 ft | 16 kts | 330° |
| 2026-05-06 21:19 | 60.32958 | 24.95915 | 183 ft | 19 kts | 329° |
| 2026-05-06 21:20 | 60.33072 | 24.95759 | 183 ft | 20 kts | 327° |
| 2026-05-06 21:20 | 60.33145 | 24.95633 | 185 ft | 21 kts | 314° |
| 2026-05-06 21:20 | 60.33203 | 24.95385 | 190 ft | 13 kts | 241° |
| 2026-05-06 21:20 | 60.33143 | 24.95245 | 183 ft | 14 kts | 226° |
| 2026-05-06 21:21 | 60.33106 | 24.95055 | 183 ft | 16 kts | 274° |
| 2026-05-06 21:21 | 60.33113 | 24.94848 | 192 ft | 11 kts | 273° |
| 2026-05-06 21:21 | 60.33117 | 24.94722 | 200 ft | 0 kts | 271° |
| 2026-05-06 21:22 | 60.33117 | 24.94704 | 188 ft | 5 kts | 271° |
| 2026-05-06 21:22 | 60.33118 | 24.94529 | 194 ft | 15 kts | 271° |
| 2026-05-06 21:23 | 60.33114 | 24.94396 | 195 ft | 0 kts | 229° |
| 2026-05-06 21:23 | 60.33106 | 24.94378 | 199 ft | 9 kts | 230° |
| 2026-05-06 21:23 | 60.32868 | 24.93850 | 188 ft | 95 kts | 226° |
| 2026-05-06 21:23 | 60.32255 | 24.92513 | 174 ft | 165 kts | 227° |
| 2026-05-06 21:24 | 60.31494 | 24.90847 | 1001 ft | 149 kts | 229° |
| 2026-05-06 21:24 | 60.30785 | 24.89243 | 1612 ft | 165 kts | 226° |
| 2026-05-06 21:24 | 60.29938 | 24.87421 | 2106 ft | 191 kts | 228° |
| 2026-05-06 21:24 | 60.28980 | 24.85295 | 2615 ft | 218 kts | 230° |
| 2026-05-06 21:25 | 60.28005 | 24.82704 | 3125 ft | 245 kts | 233° |
| 2026-05-06 21:25 | 60.26917 | 24.79913 | 3839 ft | 259 kts | 232° |
| 2026-05-06 21:25 | 60.26172 | 24.78019 | 4393 ft | 262 kts | 232° |
| 2026-05-06 21:25 | 60.24665 | 24.74168 | 5739 ft | 266 kts | 232° |
| 2026-05-06 21:26 | 60.23513 | 24.71221 | 6717 ft | 270 kts | 232° |
| 2026-05-06 21:26 | 60.22338 | 24.68212 | 7684 ft | 276 kts | 232° |
| 2026-05-06 21:26 | 60.21144 | 24.65153 | 8647 ft | 280 kts | 231° |
| 2026-05-06 21:26 | 60.19925 | 24.62043 | 9635 ft | 286 kts | 231° |
| 2026-05-06 21:27 | 60.19106 | 24.59956 | 10375 ft | 291 kts | 231° |
| 2026-05-06 21:27 | 60.17801 | 24.56619 | 10916 ft | 318 kts | 231° |
| 2026-05-06 21:27 | 60.16350 | 24.53005 | 11333 ft | 346 kts | 227° |
| 2026-05-06 21:27 | 60.14540 | 24.49583 | 11707 ft | 370 kts | 216° |
| 2026-05-06 21:28 | 60.11447 | 24.46319 | 12459 ft | 388 kts | 199° |
| 2026-05-06 21:28 | 60.08796 | 24.45215 | 13298 ft | 394 kts | 187° |
| 2026-05-06 21:28 | 60.06926 | 24.45201 | 13830 ft | 401 kts | 178° |
| 2026-05-06 21:28 | 60.04162 | 24.46351 | 14563 ft | 412 kts | 164° |
| 2026-05-06 21:29 | 60.01569 | 24.48736 | 15358 ft | 420 kts | 155° |
| 2026-05-06 21:29 | 59.98976 | 24.51503 | 16140 ft | 425 kts | 156° |
| 2026-05-06 21:29 | 59.96351 | 24.54287 | 16870 ft | 429 kts | 156° |
| 2026-05-06 21:29 | 59.93696 | 24.57042 | 17588 ft | 433 kts | 158° |
| 2026-05-06 21:30 | 59.90999 | 24.59805 | 18275 ft | 437 kts | 158° |
| 2026-05-06 21:30 | 59.88264 | 24.62486 | 18963 ft | 438 kts | 162° |
| 2026-05-06 21:30 | 59.85376 | 24.64308 | 19664 ft | 434 kts | 173° |
| 2026-05-06 21:30 | 59.82397 | 24.64918 | 20360 ft | 429 kts | 185° |
| 2026-05-06 21:31 | 59.79447 | 24.64300 | 21063 ft | 425 kts | 196° |
| 2026-05-06 21:31 | 59.76563 | 24.62944 | 21833 ft | 427 kts | 199° |
| 2026-05-06 21:31 | 59.73708 | 24.61510 | 22532 ft | 430 kts | 198° |
| 2026-05-06 21:31 | 59.70795 | 24.60087 | 23164 ft | 433 kts | 198° |
| 2026-05-06 21:32 | 59.67857 | 24.58692 | 23771 ft | 436 kts | 198° |
| 2026-05-06 21:32 | 59.62019 | 24.55703 | 25101 ft | 430 kts | 199° |
| 2026-05-06 21:32 | 59.59138 | 24.54211 | 25789 ft | 426 kts | 199° |
| 2026-05-06 21:33 | 59.56279 | 24.52731 | 26447 ft | 424 kts | 199° |
| 2026-05-06 21:33 | 59.53438 | 24.51259 | 27087 ft | 421 kts | 199° |
| 2026-05-06 21:33 | 59.50655 | 24.49813 | 27678 ft | 417 kts | 199° |
| 2026-05-06 21:33 | 59.47857 | 24.48365 | 28213 ft | 415 kts | 199° |
| 2026-05-06 21:34 | 59.45072 | 24.46932 | 28744 ft | 412 kts | 199° |
| 2026-05-06 21:34 | 59.42306 | 24.45508 | 29277 ft | 410 kts | 199° |
| 2026-05-06 21:34 | 59.39555 | 24.44095 | 29784 ft | 408 kts | 198° |
| 2026-05-06 21:34 | 59.36814 | 24.42687 | 30285 ft | 405 kts | 198° |
| 2026-05-06 21:35 | 59.34083 | 24.41358 | 30744 ft | 405 kts | 196° |
| 2026-05-06 21:35 | 59.31311 | 24.40308 | 31161 ft | 405 kts | 195° |
| 2026-05-06 21:35 | 59.28542 | 24.39311 | 31558 ft | 404 kts | 195° |
| 2026-05-06 21:35 | 59.25778 | 24.38328 | 31962 ft | 404 kts | 195° |
| 2026-05-06 21:36 | 59.23054 | 24.37358 | 32352 ft | 403 kts | 195° |
| 2026-05-06 21:36 | 59.20296 | 24.36375 | 32749 ft | 402 kts | 195° |
| 2026-05-06 21:36 | 59.17554 | 24.35393 | 33093 ft | 402 kts | 195° |
| 2026-05-06 21:36 | 59.14807 | 24.34414 | 33438 ft | 401 kts | 195° |
| 2026-05-06 21:37 | 59.12064 | 24.33437 | 33760 ft | 400 kts | 195° |
| 2026-05-06 21:37 | 59.09326 | 24.32461 | 34112 ft | 399 kts | 195° |
| 2026-05-06 21:37 | 59.06596 | 24.31493 | 34414 ft | 399 kts | 195° |
| 2026-05-06 21:37 | 59.03856 | 24.30521 | 34669 ft | 400 kts | 195° |
| 2026-05-06 21:38 | 59.01151 | 24.29564 | 34912 ft | 401 kts | 195° |
| 2026-05-06 21:38 | 58.98405 | 24.28597 | 35159 ft | 402 kts | 195° |
| 2026-05-06 21:38 | 58.95643 | 24.27625 | 35383 ft | 403 kts | 195° |
| 2026-05-06 21:38 | 58.92883 | 24.26650 | 35609 ft | 404 kts | 195° |
| 2026-05-06 21:39 | 58.90110 | 24.25677 | 35831 ft | 405 kts | 195° |
| 2026-05-06 21:39 | 58.87337 | 24.24697 | 36027 ft | 406 kts | 195° |
| 2026-05-06 21:39 | 58.84559 | 24.23713 | 36219 ft | 407 kts | 195° |
| 2026-05-06 21:39 | 58.81771 | 24.22740 | 36409 ft | 408 kts | 194° |
| 2026-05-06 21:40 | 58.79014 | 24.21782 | 36584 ft | 409 kts | 194° |
| 2026-05-06 21:40 | 58.76215 | 24.20805 | 36794 ft | 409 kts | 194° |
| 2026-05-06 21:40 | 58.73424 | 24.19839 | 37056 ft | 407 kts | 194° |
| 2026-05-06 21:40 | 58.70637 | 24.18880 | 37317 ft | 405 kts | 194° |
| 2026-05-06 21:41 | 58.67868 | 24.17916 | 37528 ft | 405 kts | 194° |
| 2026-05-06 21:41 | 58.65096 | 24.16948 | 37681 ft | 406 kts | 194° |
| 2026-05-06 21:41 | 58.62307 | 24.15974 | 37813 ft | 407 kts | 194° |
| 2026-05-06 21:41 | 58.59516 | 24.15010 | 37961 ft | 408 kts | 194° |
| 2026-05-06 21:42 | 58.56717 | 24.14048 | 38128 ft | 409 kts | 194° |
| 2026-05-06 21:42 | 58.53950 | 24.13097 | 38272 ft | 410 kts | 194° |
| 2026-05-06 21:42 | 58.51143 | 24.12130 | 38425 ft | 411 kts | 194° |
| 2026-05-06 21:42 | 58.48329 | 24.11169 | 38564 ft | 412 kts | 194° |
| 2026-05-06 21:43 | 58.45503 | 24.10207 | 38702 ft | 413 kts | 194° |
| 2026-05-06 21:43 | 58.42671 | 24.09235 | 38856 ft | 414 kts | 194° |
| 2026-05-06 21:43 | 58.39834 | 24.08265 | 39009 ft | 415 kts | 194° |
| 2026-05-06 21:43 | 58.36990 | 24.07292 | 39167 ft | 416 kts | 194° |
| 2026-05-06 21:44 | 58.34142 | 24.06315 | 39334 ft | 416 kts | 194° |
| 2026-05-06 21:44 | 58.31326 | 24.05354 | 39508 ft | 417 kts | 194° |
| 2026-05-06 21:44 | 58.28468 | 24.04390 | 39666 ft | 418 kts | 194° |
| 2026-05-06 21:44 | 58.25604 | 24.03425 | 39835 ft | 418 kts | 194° |
| 2026-05-06 21:45 | 58.22736 | 24.02456 | 39986 ft | 420 kts | 194° |
| 2026-05-06 21:45 | 58.19848 | 24.01475 | 40022 ft | 421 kts | 194° |
| 2026-05-06 21:45 | 58.14080 | 23.99533 | 39998 ft | 421 kts | 194° |
| 2026-05-06 21:46 | 58.08314 | 23.97612 | 39980 ft | 421 kts | 194° |
| 2026-05-06 21:46 | 58.02550 | 23.95671 | 39972 ft | 421 kts | 194° |
| 2026-05-06 21:47 | 57.96822 | 23.93752 | 39972 ft | 421 kts | 194° |
| 2026-05-06 21:47 | 57.91052 | 23.91835 | 39970 ft | 421 kts | 194° |
| 2026-05-06 21:48 | 57.85280 | 23.89926 | 39963 ft | 422 kts | 194° |
| 2026-05-06 21:48 | 57.79509 | 23.88018 | 39962 ft | 421 kts | 194° |
| 2026-05-06 21:49 | 57.73778 | 23.86122 | 39956 ft | 421 kts | 194° |
| 2026-05-06 21:49 | 57.68010 | 23.84234 | 39953 ft | 421 kts | 194° |
| 2026-05-06 21:50 | 57.62238 | 23.82352 | 39951 ft | 421 kts | 194° |
| 2026-05-06 21:50 | 57.56468 | 23.80468 | 39942 ft | 421 kts | 194° |
| 2026-05-06 21:51 | 57.50690 | 23.78590 | 39938 ft | 421 kts | 194° |
| 2026-05-06 21:51 | 57.44953 | 23.76738 | 39930 ft | 421 kts | 194° |
| 2026-05-06 21:52 | 57.39187 | 23.74881 | 39930 ft | 420 kts | 194° |
| 2026-05-06 21:52 | 57.33422 | 23.73027 | 39921 ft | 420 kts | 194° |
| 2026-05-06 21:53 | 57.27663 | 23.71175 | 39921 ft | 420 kts | 194° |
| 2026-05-06 21:53 | 57.21945 | 23.69342 | 39912 ft | 420 kts | 193° |
| 2026-05-06 21:54 | 57.16191 | 23.67512 | 39910 ft | 419 kts | 194° |
| 2026-05-06 21:54 | 57.10449 | 23.65686 | 39910 ft | 419 kts | 193° |
| 2026-05-06 21:55 | 57.04698 | 23.63867 | 39910 ft | 419 kts | 193° |
| 2026-05-06 21:55 | 56.98958 | 23.62050 | 39909 ft | 419 kts | 193° |
| 2026-05-06 21:56 | 56.93255 | 23.60251 | 39910 ft | 419 kts | 193° |
| 2026-05-06 21:56 | 56.87506 | 23.58451 | 39910 ft | 419 kts | 193° |
| 2026-05-06 21:57 | 56.81754 | 23.56654 | 39906 ft | 419 kts | 193° |
| 2026-05-06 21:57 | 56.76015 | 23.54863 | 39901 ft | 418 kts | 193° |
| 2026-05-06 21:58 | 56.70314 | 23.53093 | 39901 ft | 418 kts | 193° |
| 2026-05-06 21:58 | 56.64573 | 23.51312 | 39901 ft | 418 kts | 193° |
| 2026-05-06 21:59 | 56.58831 | 23.49541 | 39901 ft | 419 kts | 193° |
| 2026-05-06 21:59 | 56.53077 | 23.47769 | 39901 ft | 420 kts | 193° |
| 2026-05-06 22:00 | 56.47348 | 23.46006 | 39891 ft | 420 kts | 193° |
| 2026-05-06 22:00 | 56.41593 | 23.44241 | 39890 ft | 420 kts | 193° |
| 2026-05-06 22:01 | 56.35829 | 23.42525 | 39891 ft | 420 kts | 192° |
| 2026-05-06 22:01 | 56.30027 | 23.41108 | 39881 ft | 420 kts | 192° |
| 2026-05-06 22:02 | 56.24223 | 23.39709 | 39881 ft | 421 kts | 192° |
| 2026-05-06 22:02 | 56.18463 | 23.38322 | 39880 ft | 420 kts | 192° |
| 2026-05-06 22:03 | 56.12667 | 23.36925 | 39879 ft | 420 kts | 192° |
| 2026-05-06 22:03 | 56.06870 | 23.35533 | 39881 ft | 420 kts | 192° |
| 2026-05-06 22:04 | 56.01071 | 23.34146 | 39881 ft | 421 kts | 192° |
| 2026-05-06 22:04 | 55.95309 | 23.32768 | 39881 ft | 420 kts | 191° |
| 2026-05-06 22:05 | 55.89511 | 23.31390 | 39880 ft | 420 kts | 191° |
| 2026-05-06 22:05 | 55.83720 | 23.30022 | 39880 ft | 420 kts | 191° |
| 2026-05-06 22:06 | 55.77922 | 23.28644 | 39876 ft | 420 kts | 192° |
| 2026-05-06 22:06 | 55.72133 | 23.27272 | 39872 ft | 420 kts | 191° |
| 2026-05-06 22:07 | 55.66376 | 23.25930 | 39870 ft | 420 kts | 191° |
| 2026-05-06 22:07 | 55.60588 | 23.24582 | 39868 ft | 420 kts | 191° |
| 2026-05-06 22:08 | 55.54786 | 23.23227 | 39871 ft | 421 kts | 191° |
| 2026-05-06 22:08 | 55.48985 | 23.21878 | 39862 ft | 420 kts | 191° |
| 2026-05-06 22:09 | 55.43221 | 23.20541 | 39861 ft | 420 kts | 191° |
| 2026-05-06 22:09 | 55.37426 | 23.19200 | 39856 ft | 421 kts | 191° |
| 2026-05-06 22:10 | 55.31623 | 23.17863 | 39851 ft | 421 kts | 191° |
| 2026-05-06 22:10 | 55.25820 | 23.16527 | 39851 ft | 421 kts | 191° |
| 2026-05-06 22:11 | 55.20055 | 23.15206 | 39847 ft | 420 kts | 191° |
| 2026-05-06 22:11 | 55.14253 | 23.13877 | 39838 ft | 421 kts | 191° |
| 2026-05-06 22:12 | 55.08441 | 23.12555 | 39834 ft | 421 kts | 191° |
| 2026-05-06 22:12 | 55.02630 | 23.11232 | 39832 ft | 421 kts | 191° |
| 2026-05-06 22:13 | 54.96820 | 23.09911 | 39829 ft | 421 kts | 191° |
| 2026-05-06 22:13 | 54.91048 | 23.08606 | 39834 ft | 421 kts | 191° |
| 2026-05-06 22:14 | 54.85240 | 23.07299 | 39820 ft | 421 kts | 191° |
| 2026-05-06 22:14 | 54.79496 | 23.06007 | 39812 ft | 413 kts | 191° |
| 2026-05-06 22:15 | 54.73829 | 23.04740 | 39810 ft | 405 kts | 191° |
| 2026-05-06 22:15 | 54.68313 | 23.03513 | 39811 ft | 402 kts | 191° |
| 2026-05-06 22:16 | 54.62693 | 23.02254 | 39832 ft | 415 kts | 191° |
| 2026-05-06 22:16 | 54.56889 | 23.00964 | 39832 ft | 422 kts | 191° |
| 2026-05-06 22:17 | 54.51059 | 22.99677 | 39826 ft | 422 kts | 191° |
| 2026-05-06 22:17 | 54.45273 | 22.98398 | 39829 ft | 422 kts | 191° |
| 2026-05-06 22:18 | 54.39458 | 22.97118 | 39817 ft | 422 kts | 191° |
| 2026-05-06 22:18 | 54.33690 | 22.95848 | 39818 ft | 421 kts | 191° |
| 2026-05-06 22:19 | 54.27861 | 22.94572 | 39824 ft | 423 kts | 191° |
| 2026-05-06 22:19 | 54.22025 | 22.93299 | 39813 ft | 422 kts | 191° |
| 2026-05-06 22:20 | 54.16200 | 22.92032 | 39811 ft | 422 kts | 191° |
| 2026-05-06 22:20 | 54.10409 | 22.90763 | 39812 ft | 422 kts | 191° |
| 2026-05-06 22:21 | 54.04860 | 22.87940 | 39810 ft | 415 kts | 210° |
| 2026-05-06 22:21 | 53.99899 | 22.82953 | 39812 ft | 414 kts | 213° |
| 2026-05-06 22:22 | 53.94983 | 22.77896 | 39811 ft | 417 kts | 212° |
| 2026-05-06 22:22 | 53.90006 | 22.72863 | 39809 ft | 416 kts | 212° |
| 2026-05-06 22:23 | 53.87373 | 22.70778 | 39806 ft | 420 kts | 200° |
| 2026-05-06 22:23 | 53.84525 | 22.69603 | 39814 ft | 424 kts | 194° |
| 2026-05-06 22:23 | 53.78710 | 22.67871 | 39812 ft | 424 kts | 193° |
| 2026-05-06 22:24 | 53.72901 | 22.66096 | 39809 ft | 424 kts | 193° |
| 2026-05-06 22:24 | 53.67098 | 22.64283 | 39809 ft | 425 kts | 193° |
| 2026-05-06 22:25 | 53.61286 | 22.62483 | 39809 ft | 425 kts | 193° |
| 2026-05-06 22:25 | 53.55506 | 22.60707 | 39810 ft | 425 kts | 193° |
| 2026-05-06 22:26 | 53.49738 | 22.58919 | 39810 ft | 425 kts | 193° |
| 2026-05-06 22:26 | 53.43928 | 22.57109 | 39805 ft | 424 kts | 193° |
| 2026-05-06 22:27 | 53.38121 | 22.55311 | 39802 ft | 425 kts | 193° |
| 2026-05-06 22:27 | 53.32343 | 22.53532 | 39801 ft | 425 kts | 193° |
| 2026-05-06 22:28 | 53.26522 | 22.51748 | 39792 ft | 425 kts | 193° |
| 2026-05-06 22:28 | 53.20701 | 22.49979 | 39790 ft | 425 kts | 193° |
| 2026-05-06 22:29 | 53.14873 | 22.48198 | 39790 ft | 426 kts | 193° |
| 2026-05-06 22:29 | 53.09050 | 22.46425 | 39790 ft | 426 kts | 193° |
| 2026-05-06 22:30 | 53.03210 | 22.44650 | 39790 ft | 427 kts | 193° |
| 2026-05-06 22:30 | 52.97406 | 22.42881 | 39789 ft | 427 kts | 193° |
| 2026-05-06 22:31 | 52.91562 | 22.41114 | 39791 ft | 427 kts | 193° |
| 2026-05-06 22:31 | 52.85722 | 22.39351 | 39792 ft | 428 kts | 193° |
| 2026-05-06 22:32 | 52.79865 | 22.37588 | 39791 ft | 428 kts | 193° |
| 2026-05-06 22:32 | 52.74012 | 22.35831 | 39790 ft | 428 kts | 193° |
| 2026-05-06 22:33 | 52.68194 | 22.34089 | 39792 ft | 428 kts | 193° |
| 2026-05-06 22:33 | 52.62339 | 22.32341 | 39800 ft | 428 kts | 193° |
| 2026-05-06 22:34 | 52.56467 | 22.30593 | 39804 ft | 429 kts | 193° |
| 2026-05-06 22:34 | 52.50590 | 22.28849 | 39803 ft | 430 kts | 193° |
| 2026-05-06 22:35 | 52.44705 | 22.27106 | 39805 ft | 429 kts | 193° |
| 2026-05-06 22:35 | 52.38864 | 22.25381 | 39797 ft | 429 kts | 193° |
| 2026-05-06 22:36 | 52.32980 | 22.23654 | 39792 ft | 430 kts | 192° |
| 2026-05-06 22:36 | 52.26999 | 22.22668 | 39791 ft | 432 kts | 189° |
| 2026-05-06 22:37 | 52.21056 | 22.21257 | 39807 ft | 431 kts | 193° |
| 2026-05-06 22:37 | 52.15213 | 22.19431 | 39807 ft | 429 kts | 197° |
| 2026-05-06 22:38 | 52.09441 | 22.16981 | 39813 ft | 430 kts | 195° |
| 2026-05-06 22:38 | 52.03571 | 22.15068 | 39809 ft | 431 kts | 193° |
| 2026-05-06 22:39 | 51.97667 | 22.13349 | 39804 ft | 431 kts | 193° |
| 2026-05-06 22:39 | 51.91758 | 22.11647 | 39802 ft | 431 kts | 193° |
| 2026-05-06 22:40 | 51.85882 | 22.09956 | 39800 ft | 432 kts | 193° |
| 2026-05-06 22:40 | 51.79973 | 22.08260 | 39800 ft | 431 kts | 193° |
| 2026-05-06 22:41 | 51.71113 | 22.05725 | 39802 ft | 431 kts | 193° |
| 2026-05-06 22:42 | 51.65197 | 22.04036 | 39799 ft | 431 kts | 193° |
| 2026-05-06 22:42 | 51.59328 | 22.02367 | 39802 ft | 431 kts | 193° |
| 2026-05-06 22:43 | 51.53423 | 22.00691 | 39801 ft | 432 kts | 193° |
| 2026-05-06 22:43 | 51.47501 | 21.99016 | 39801 ft | 432 kts | 193° |
| 2026-05-06 22:44 | 51.41588 | 21.97350 | 39800 ft | 431 kts | 193° |
| 2026-05-06 22:44 | 51.35646 | 21.95917 | 39801 ft | 432 kts | 192° |
| 2026-05-06 22:45 | 51.29770 | 21.94268 | 39800 ft | 431 kts | 194° |
| 2026-05-06 22:45 | 51.23870 | 21.92484 | 39801 ft | 431 kts | 193° |
| 2026-05-06 22:46 | 51.17960 | 21.90813 | 39809 ft | 431 kts | 193° |
| 2026-05-06 22:46 | 51.12038 | 21.89177 | 39809 ft | 432 kts | 193° |
| 2026-05-06 22:47 | 51.06155 | 21.87545 | 39809 ft | 432 kts | 193° |
| 2026-05-06 22:47 | 51.00226 | 21.85902 | 39810 ft | 432 kts | 193° |
| 2026-05-06 22:48 | 50.94306 | 21.84261 | 39811 ft | 432 kts | 193° |
| 2026-05-06 22:48 | 50.88372 | 21.82627 | 39811 ft | 433 kts | 193° |
| 2026-05-06 22:49 | 50.82471 | 21.80999 | 39810 ft | 433 kts | 193° |
| 2026-05-06 22:49 | 50.76526 | 21.79381 | 39825 ft | 434 kts | 193° |
| 2026-05-06 22:50 | 50.70580 | 21.77748 | 39818 ft | 434 kts | 193° |
| 2026-05-06 22:50 | 50.64630 | 21.76137 | 39824 ft | 434 kts | 193° |
| 2026-05-06 22:51 | 50.58715 | 21.74539 | 39829 ft | 435 kts | 193° |
| 2026-05-06 22:51 | 50.52750 | 21.72925 | 39838 ft | 435 kts | 193° |
| 2026-05-06 22:52 | 50.46780 | 21.71305 | 39827 ft | 435 kts | 193° |
| 2026-05-06 22:52 | 50.40815 | 21.69693 | 39836 ft | 435 kts | 193° |
| 2026-05-06 22:53 | 50.34878 | 21.68091 | 39843 ft | 436 kts | 193° |
| 2026-05-06 22:53 | 50.28900 | 21.66483 | 39838 ft | 436 kts | 193° |
| 2026-05-06 22:54 | 50.22909 | 21.64871 | 39836 ft | 437 kts | 193° |
| 2026-05-06 22:54 | 50.16917 | 21.63274 | 39841 ft | 436 kts | 193° |
| 2026-05-06 22:55 | 50.10970 | 21.61688 | 39841 ft | 437 kts | 193° |
| 2026-05-06 22:55 | 50.04982 | 21.60092 | 39846 ft | 437 kts | 193° |
| 2026-05-06 22:56 | 49.98917 | 21.59217 | 39847 ft | 442 kts | 180° |
| 2026-05-06 22:56 | 49.92764 | 21.59969 | 39849 ft | 444 kts | 179° |
| 2026-05-06 22:57 | 49.86607 | 21.60635 | 39851 ft | 444 kts | 180° |
| 2026-05-06 22:57 | 49.80481 | 21.61239 | 39849 ft | 444 kts | 180° |
| 2026-05-06 22:58 | 49.74320 | 21.61862 | 39850 ft | 444 kts | 180° |
| 2026-05-06 22:58 | 49.68157 | 21.62493 | 39850 ft | 444 kts | 180° |
| 2026-05-06 22:59 | 49.61993 | 21.63117 | 39861 ft | 444 kts | 180° |
| 2026-05-06 22:59 | 49.55834 | 21.63742 | 39860 ft | 444 kts | 180° |
| 2026-05-06 23:00 | 49.49676 | 21.64367 | 39864 ft | 443 kts | 180° |
| 2026-05-06 23:00 | 49.43527 | 21.64983 | 39871 ft | 443 kts | 180° |
| 2026-05-06 23:01 | 49.37416 | 21.65592 | 39871 ft | 443 kts | 180° |
| 2026-05-06 23:01 | 49.31256 | 21.66201 | 39869 ft | 443 kts | 180° |
| 2026-05-06 23:02 | 49.25104 | 21.66819 | 39875 ft | 443 kts | 180° |
| 2026-05-06 23:02 | 49.18957 | 21.67432 | 39879 ft | 443 kts | 180° |
| 2026-05-06 23:03 | 49.12850 | 21.68041 | 39886 ft | 443 kts | 180° |
| 2026-05-06 23:03 | 49.06694 | 21.68652 | 39890 ft | 443 kts | 180° |
| 2026-05-06 23:04 | 49.00539 | 21.69261 | 39898 ft | 443 kts | 180° |
| 2026-05-06 23:04 | 48.94386 | 21.69866 | 39901 ft | 444 kts | 180° |
| 2026-05-06 23:05 | 48.88264 | 21.70469 | 39899 ft | 443 kts | 180° |
| 2026-05-06 23:05 | 48.82106 | 21.71073 | 39900 ft | 444 kts | 180° |
| 2026-05-06 23:06 | 48.75936 | 21.71677 | 39900 ft | 444 kts | 179° |
| 2026-05-06 23:06 | 48.69803 | 21.72280 | 39900 ft | 445 kts | 179° |
| 2026-05-06 23:07 | 48.63622 | 21.72884 | 39900 ft | 445 kts | 179° |
| 2026-05-06 23:07 | 48.57440 | 21.73490 | 39900 ft | 445 kts | 179° |
| 2026-05-06 23:08 | 48.51319 | 21.74079 | 39909 ft | 445 kts | 180° |
| 2026-05-06 23:08 | 48.45121 | 21.74674 | 39910 ft | 446 kts | 179° |
| 2026-05-06 23:09 | 48.38965 | 21.75267 | 39908 ft | 447 kts | 179° |
| 2026-05-06 23:09 | 48.32765 | 21.75864 | 39910 ft | 447 kts | 179° |
| 2026-05-06 23:10 | 48.26559 | 21.76462 | 39911 ft | 447 kts | 179° |
| 2026-05-06 23:10 | 48.20351 | 21.77061 | 39914 ft | 447 kts | 180° |
| 2026-05-06 23:11 | 48.14181 | 21.77653 | 39909 ft | 447 kts | 179° |
| 2026-05-06 23:11 | 48.07958 | 21.78240 | 39910 ft | 448 kts | 179° |
| 2026-05-06 23:12 | 48.01733 | 21.78830 | 39909 ft | 448 kts | 179° |
| 2026-05-06 23:12 | 47.95511 | 21.79429 | 39912 ft | 449 kts | 179° |
| 2026-05-06 23:13 | 47.89325 | 21.80018 | 39910 ft | 448 kts | 179° |
| 2026-05-06 23:13 | 47.83097 | 21.80597 | 39910 ft | 448 kts | 179° |
| 2026-05-06 23:14 | 47.76873 | 21.81176 | 39909 ft | 448 kts | 179° |
| 2026-05-06 23:14 | 47.70651 | 21.81761 | 39917 ft | 448 kts | 179° |
| 2026-05-06 23:15 | 47.64468 | 21.82346 | 39926 ft | 448 kts | 179° |
| 2026-05-06 23:15 | 47.58249 | 21.82930 | 39930 ft | 448 kts | 179° |
| 2026-05-06 23:16 | 47.52022 | 21.83500 | 39930 ft | 448 kts | 179° |
| 2026-05-06 23:16 | 47.45806 | 21.84078 | 39928 ft | 448 kts | 179° |
| 2026-05-06 23:17 | 47.39628 | 21.84654 | 39930 ft | 448 kts | 179° |
| 2026-05-06 23:17 | 47.33415 | 21.85230 | 39929 ft | 447 kts | 179° |
| 2026-05-06 23:18 | 47.27202 | 21.85809 | 39928 ft | 447 kts | 179° |
| 2026-05-06 23:18 | 47.21073 | 21.87572 | 39932 ft | 452 kts | 166° |
| 2026-05-06 23:19 | 47.15048 | 21.90246 | 39929 ft | 453 kts | 166° |
| 2026-05-06 23:19 | 47.09053 | 21.92874 | 39933 ft | 452 kts | 166° |
| 2026-05-06 23:20 | 47.03015 | 21.95474 | 39931 ft | 452 kts | 167° |
| 2026-05-06 23:20 | 46.96989 | 21.98058 | 39932 ft | 451 kts | 167° |
| 2026-05-06 23:21 | 46.90955 | 22.00645 | 39938 ft | 452 kts | 166° |
| 2026-05-06 23:21 | 46.84936 | 22.03196 | 39939 ft | 455 kts | 166° |
| 2026-05-06 23:22 | 46.78854 | 22.05769 | 39940 ft | 455 kts | 166° |
| 2026-05-06 23:22 | 46.72773 | 22.08355 | 39941 ft | 455 kts | 166° |
| 2026-05-06 23:23 | 46.66700 | 22.10939 | 39941 ft | 454 kts | 166° |
| 2026-05-06 23:23 | 46.60666 | 22.13500 | 39940 ft | 455 kts | 166° |
| 2026-05-06 23:24 | 46.54589 | 22.16068 | 39941 ft | 455 kts | 167° |
| 2026-05-06 23:24 | 46.48517 | 22.18620 | 39938 ft | 454 kts | 167° |
| 2026-05-06 23:25 | 46.42475 | 22.21290 | 39937 ft | 454 kts | 166° |
| 2026-05-06 23:25 | 46.36433 | 22.23739 | 39940 ft | 454 kts | 167° |
| 2026-05-06 23:26 | 46.30363 | 22.26241 | 39944 ft | 453 kts | 167° |
| 2026-05-06 23:26 | 46.24305 | 22.28771 | 39949 ft | 453 kts | 167° |
| 2026-05-06 23:27 | 46.18239 | 22.31301 | 39952 ft | 453 kts | 167° |
| 2026-05-06 23:27 | 46.12213 | 22.33808 | 39951 ft | 454 kts | 167° |
| 2026-05-06 23:28 | 46.06150 | 22.36324 | 39950 ft | 454 kts | 167° |
| 2026-05-06 23:28 | 46.00080 | 22.38840 | 39957 ft | 454 kts | 167° |
| 2026-05-06 23:29 | 45.94007 | 22.41350 | 39958 ft | 455 kts | 167° |
| 2026-05-06 23:29 | 45.87919 | 22.43862 | 39960 ft | 455 kts | 167° |
| 2026-05-06 23:30 | 45.81878 | 22.46349 | 39961 ft | 455 kts | 167° |
| 2026-05-06 23:30 | 45.75786 | 22.48854 | 39954 ft | 456 kts | 167° |
| 2026-05-06 23:31 | 45.69687 | 22.51354 | 39959 ft | 456 kts | 167° |
| 2026-05-06 23:31 | 45.63584 | 22.53846 | 39961 ft | 456 kts | 167° |
| 2026-05-06 23:32 | 45.57519 | 22.56319 | 39965 ft | 457 kts | 167° |
| 2026-05-06 23:32 | 45.51400 | 22.58809 | 39968 ft | 458 kts | 167° |
| 2026-05-06 23:33 | 45.45270 | 22.61297 | 39976 ft | 458 kts | 167° |
| 2026-05-06 23:33 | 45.39140 | 22.63781 | 39967 ft | 458 kts | 167° |
| 2026-05-06 23:34 | 45.33045 | 22.66245 | 39968 ft | 459 kts | 167° |
| 2026-05-06 23:34 | 45.26907 | 22.68721 | 39966 ft | 459 kts | 167° |
| 2026-05-06 23:35 | 45.20762 | 22.71195 | 39976 ft | 459 kts | 167° |
| 2026-05-06 23:35 | 45.14608 | 22.73667 | 39978 ft | 460 kts | 167° |
| 2026-05-06 23:36 | 45.08444 | 22.76137 | 39993 ft | 461 kts | 167° |
| 2026-05-06 23:36 | 45.02317 | 22.78588 | 39990 ft | 461 kts | 167° |
| 2026-05-06 23:37 | 44.96146 | 22.81051 | 39994 ft | 461 kts | 167° |
| 2026-05-06 23:37 | 44.89980 | 22.83519 | 39998 ft | 461 kts | 166° |
| 2026-05-06 23:38 | 44.83797 | 22.85978 | 39999 ft | 461 kts | 167° |
| 2026-05-06 23:38 | 44.77610 | 22.88377 | 40000 ft | 461 kts | 167° |
| 2026-05-06 23:39 | 44.71467 | 22.90791 | 40000 ft | 462 kts | 167° |
| 2026-05-06 23:39 | 44.65278 | 22.93234 | 40005 ft | 462 kts | 167° |
| 2026-05-06 23:40 | 44.59080 | 22.95671 | 40009 ft | 463 kts | 167° |
| 2026-05-06 23:40 | 44.52919 | 22.98085 | 40011 ft | 463 kts | 167° |
| 2026-05-06 23:41 | 44.46717 | 23.00503 | 40009 ft | 463 kts | 167° |
| 2026-05-06 23:41 | 44.40510 | 23.02928 | 40010 ft | 463 kts | 167° |
| 2026-05-06 23:42 | 44.34299 | 23.05349 | 40010 ft | 463 kts | 167° |
| 2026-05-06 23:42 | 44.28124 | 23.07758 | 40015 ft | 464 kts | 167° |
| 2026-05-06 23:43 | 44.21908 | 23.10170 | 40019 ft | 464 kts | 167° |
| 2026-05-06 23:43 | 44.15688 | 23.12580 | 40019 ft | 463 kts | 167° |
| 2026-05-06 23:44 | 44.09471 | 23.14980 | 40021 ft | 464 kts | 167° |
| 2026-05-06 23:44 | 44.03244 | 23.17379 | 40019 ft | 464 kts | 167° |
| 2026-05-06 23:45 | 43.97060 | 23.19757 | 40019 ft | 465 kts | 167° |
| 2026-05-06 23:45 | 43.90805 | 23.22156 | 40029 ft | 467 kts | 167° |
| 2026-05-06 23:46 | 43.84500 | 23.24198 | 40025 ft | 463 kts | 177° |
| 2026-05-06 23:46 | 43.81305 | 23.24166 | 40027 ft | 458 kts | 190° |
| 2026-05-06 23:46 | 43.78201 | 23.23288 | 40035 ft | 455 kts | 198° |
| 2026-05-06 23:47 | 43.72134 | 23.20991 | 40032 ft | 455 kts | 198° |
| 2026-05-06 23:47 | 43.66021 | 23.18736 | 40031 ft | 454 kts | 198° |
| 2026-05-06 23:48 | 43.59906 | 23.16530 | 40030 ft | 454 kts | 198° |
| 2026-05-06 23:48 | 43.53785 | 23.14326 | 40036 ft | 454 kts | 198° |
| 2026-05-06 23:49 | 43.47718 | 23.12149 | 40040 ft | 454 kts | 198° |
| 2026-05-06 23:49 | 43.41606 | 23.09958 | 40042 ft | 454 kts | 198° |
| 2026-05-06 23:50 | 43.35510 | 23.07720 | 40039 ft | 453 kts | 199° |
| 2026-05-06 23:50 | 43.26412 | 23.04213 | 40042 ft | 453 kts | 199° |
| 2026-05-06 23:51 | 43.20386 | 23.01914 | 40052 ft | 453 kts | 199° |
| 2026-05-06 23:51 | 43.14314 | 22.99608 | 40063 ft | 453 kts | 199° |
| 2026-05-06 23:52 | 43.08243 | 22.97304 | 40060 ft | 453 kts | 199° |
| 2026-05-06 23:52 | 43.03194 | 22.95397 | 40057 ft | 453 kts | 199° |
| 2026-05-06 23:53 | 42.96132 | 22.92735 | 40058 ft | 453 kts | 199° |
| 2026-05-06 23:53 | 42.90054 | 22.90443 | 40062 ft | 453 kts | 199° |
| 2026-05-06 23:54 | 42.85414 | 22.88696 | 40353 ft | 448 kts | 199° |
| 2026-05-06 23:54 | 42.79383 | 22.86434 | 40402 ft | 451 kts | 199° |
| 2026-05-06 23:55 | 42.76376 | 22.85305 | 40694 ft | 449 kts | 199° |
| 2026-05-06 23:55 | 42.72389 | 22.83810 | 40999 ft | 450 kts | 199° |
| 2026-05-06 23:55 | 42.67309 | 22.81911 | 41107 ft | 452 kts | 199° |
| 2026-05-06 23:56 | 42.61282 | 22.79664 | 41083 ft | 452 kts | 199° |
| 2026-05-06 23:56 | 42.58249 | 22.78531 | 40839 ft | 450 kts | 199° |
| 2026-05-06 23:56 | 42.55209 | 22.77401 | 39891 ft | 456 kts | 199° |
| 2026-05-06 23:57 | 42.49117 | 22.75125 | 40004 ft | 453 kts | 199° |
| 2026-05-06 23:57 | 42.43036 | 22.72874 | 39987 ft | 452 kts | 199° |
| 2026-05-06 23:58 | 42.40006 | 22.71756 | 39712 ft | 451 kts | 199° |
| 2026-05-06 23:58 | 42.37020 | 22.70650 | 39649 ft | 451 kts | 199° |
| 2026-05-06 23:58 | 42.30959 | 22.68398 | 39722 ft | 452 kts | 199° |
| 2026-05-06 23:59 | 42.27928 | 22.67280 | 39917 ft | 451 kts | 199° |
| 2026-05-06 23:59 | 42.24908 | 22.66168 | 40084 ft | 452 kts | 199° |
| 2026-05-06 23:59 | 42.18839 | 22.63937 | 40082 ft | 452 kts | 199° |
| 2026-05-07 00:00 | 42.12814 | 22.61725 | 40065 ft | 452 kts | 199° |
| 2026-05-07 00:00 | 42.06609 | 22.60236 | 40053 ft | 457 kts | 188° |
| 2026-05-07 00:01 | 42.00256 | 22.59677 | 40063 ft | 457 kts | 187° |
| 2026-05-07 00:01 | 41.93898 | 22.59117 | 40069 ft | 458 kts | 187° |
| 2026-05-07 00:02 | 41.87543 | 22.58526 | 40074 ft | 459 kts | 188° |
| 2026-05-07 00:02 | 41.81168 | 22.57922 | 40067 ft | 463 kts | 187° |
| 2026-05-07 00:03 | 41.74736 | 22.57337 | 40076 ft | 464 kts | 187° |
| 2026-05-07 00:03 | 41.68294 | 22.56739 | 40063 ft | 464 kts | 187° |
| 2026-05-07 00:04 | 41.61851 | 22.56137 | 40077 ft | 464 kts | 187° |
| 2026-05-07 00:04 | 41.55451 | 22.55544 | 40070 ft | 464 kts | 187° |
| 2026-05-07 00:05 | 41.49018 | 22.54954 | 40079 ft | 463 kts | 187° |
| 2026-05-07 00:05 | 41.42580 | 22.54364 | 40082 ft | 463 kts | 187° |
| 2026-05-07 00:06 | 41.36149 | 22.53774 | 40082 ft | 463 kts | 187° |
| 2026-05-07 00:06 | 41.29720 | 22.53188 | 40077 ft | 463 kts | 187° |
| 2026-05-07 00:07 | 41.23334 | 22.52605 | 40080 ft | 463 kts | 187° |
| 2026-05-07 00:07 | 41.16896 | 22.52022 | 40079 ft | 464 kts | 187° |
| 2026-05-07 00:08 | 41.10464 | 22.52901 | 40075 ft | 472 kts | 164° |
| 2026-05-07 00:08 | 41.04390 | 22.56128 | 40081 ft | 474 kts | 159° |
| 2026-05-07 00:09 | 40.98302 | 22.59484 | 40086 ft | 474 kts | 160° |
| 2026-05-07 00:09 | 40.92193 | 22.62753 | 40090 ft | 473 kts | 160° |
| 2026-05-07 00:10 | 40.86078 | 22.65991 | 40089 ft | 474 kts | 160° |
| 2026-05-07 00:10 | 40.79978 | 22.69248 | 40091 ft | 473 kts | 160° |
| 2026-05-07 00:11 | 40.73911 | 22.72455 | 40083 ft | 472 kts | 160° |
| 2026-05-07 00:11 | 40.67811 | 22.75685 | 40080 ft | 473 kts | 160° |
| 2026-05-07 00:12 | 40.61712 | 22.78912 | 40081 ft | 473 kts | 160° |
| 2026-05-07 00:12 | 40.55602 | 22.82134 | 40081 ft | 473 kts | 160° |
| 2026-05-07 00:13 | 40.49539 | 22.85328 | 40081 ft | 473 kts | 160° |
| 2026-05-07 00:13 | 40.43443 | 22.88539 | 40080 ft | 472 kts | 160° |
| 2026-05-07 00:14 | 40.37342 | 22.91737 | 40080 ft | 472 kts | 160° |
| 2026-05-07 00:14 | 40.31247 | 22.94930 | 40081 ft | 472 kts | 160° |
| 2026-05-07 00:15 | 40.25197 | 22.98111 | 40082 ft | 472 kts | 160° |
| 2026-05-07 00:15 | 40.19102 | 23.01299 | 40080 ft | 472 kts | 160° |
| 2026-05-07 00:16 | 40.13004 | 23.04473 | 40076 ft | 471 kts | 160° |
| 2026-05-07 00:16 | 40.06910 | 23.07645 | 40064 ft | 472 kts | 160° |
| 2026-05-07 00:17 | 40.00805 | 23.10807 | 40065 ft | 472 kts | 160° |
| 2026-05-07 00:17 | 39.94745 | 23.13945 | 40057 ft | 471 kts | 161° |
| 2026-05-07 00:18 | 39.88650 | 23.17097 | 40062 ft | 471 kts | 161° |
| 2026-05-07 00:18 | 39.82554 | 23.20239 | 40055 ft | 471 kts | 161° |
| 2026-05-07 00:19 | 39.76458 | 23.23378 | 40052 ft | 471 kts | 161° |
| 2026-05-07 00:19 | 39.70404 | 23.26483 | 40052 ft | 471 kts | 161° |
| 2026-05-07 00:20 | 39.64302 | 23.29603 | 40052 ft | 471 kts | 161° |
| 2026-05-07 00:20 | 39.58207 | 23.32715 | 40044 ft | 470 kts | 161° |
| 2026-05-07 00:21 | 39.52116 | 23.35831 | 40041 ft | 470 kts | 161° |
| 2026-05-07 00:21 | 39.46076 | 23.38920 | 40045 ft | 470 kts | 161° |
| 2026-05-07 00:22 | 39.39986 | 23.42022 | 40034 ft | 470 kts | 161° |
| 2026-05-07 00:22 | 39.33890 | 23.45120 | 40030 ft | 471 kts | 161° |
| 2026-05-07 00:23 | 39.27800 | 23.48211 | 40031 ft | 470 kts | 161° |
| 2026-05-07 00:23 | 39.21750 | 23.51281 | 40024 ft | 470 kts | 161° |
| 2026-05-07 00:24 | 39.15653 | 23.54361 | 40022 ft | 471 kts | 161° |
| 2026-05-07 00:24 | 39.09557 | 23.57430 | 40021 ft | 471 kts | 161° |
| 2026-05-07 00:25 | 39.03470 | 23.60495 | 39793 ft | 468 kts | 161° |
| 2026-05-07 00:25 | 39.00445 | 23.62019 | 39573 ft | 467 kts | 161° |
| 2026-05-07 00:25 | 38.97463 | 23.63519 | 39329 ft | 466 kts | 161° |
| 2026-05-07 00:26 | 38.94412 | 23.64882 | 39076 ft | 461 kts | 168° |
| 2026-05-07 00:26 | 38.91273 | 23.65654 | 38224 ft | 462 kts | 175° |
| 2026-05-07 00:26 | 38.88059 | 23.66122 | 37244 ft | 468 kts | 177° |
| 2026-05-07 00:26 | 38.84803 | 23.66548 | 36093 ft | 471 kts | 176° |
| 2026-05-07 00:27 | 38.81545 | 23.66993 | 34901 ft | 472 kts | 176° |
| 2026-05-07 00:27 | 38.78271 | 23.67461 | 33700 ft | 474 kts | 175° |
| 2026-05-07 00:27 | 38.74972 | 23.67942 | 32505 ft | 480 kts | 175° |
| 2026-05-07 00:27 | 38.71640 | 23.68430 | 31448 ft | 485 kts | 175° |
| 2026-05-07 00:28 | 38.68314 | 23.68916 | 30703 ft | 490 kts | 175° |
| 2026-05-07 00:28 | 38.64916 | 23.69412 | 30289 ft | 492 kts | 175° |
| 2026-05-07 00:28 | 38.61520 | 23.69910 | 29561 ft | 491 kts | 175° |
| 2026-05-07 00:28 | 38.58131 | 23.70408 | 28401 ft | 491 kts | 175° |
| 2026-05-07 00:29 | 38.54733 | 23.70902 | 27105 ft | 492 kts | 175° |
| 2026-05-07 00:29 | 38.51322 | 23.71400 | 25785 ft | 495 kts | 175° |
| 2026-05-07 00:30 | 38.41046 | 23.72897 | 21746 ft | 487 kts | 175° |
| 2026-05-07 00:30 | 38.37700 | 23.73381 | 20396 ft | 480 kts | 175° |
| 2026-05-07 00:30 | 38.34414 | 23.73861 | 19039 ft | 471 kts | 176° |
| 2026-05-07 00:30 | 38.31226 | 23.74324 | 17708 ft | 463 kts | 176° |
| 2026-05-07 00:31 | 38.28058 | 23.74782 | 16370 ft | 454 kts | 176° |
| 2026-05-07 00:31 | 38.24951 | 23.75228 | 15017 ft | 446 kts | 176° |
| 2026-05-07 00:31 | 38.21869 | 23.75671 | 13740 ft | 447 kts | 175° |
| 2026-05-07 00:31 | 38.18846 | 23.76116 | 13301 ft | 427 kts | 175° |
| 2026-05-07 00:32 | 38.15920 | 23.76544 | 12760 ft | 416 kts | 178° |
| 2026-05-07 00:32 | 38.13109 | 23.76324 | 11722 ft | 398 kts | 194° |
| 2026-05-07 00:32 | 38.10632 | 23.75109 | 10900 ft | 378 kts | 212° |
| 2026-05-07 00:32 | 38.08699 | 23.73042 | 10431 ft | 353 kts | 232° |
| 2026-05-07 00:33 | 38.07405 | 23.70544 | 10198 ft | 326 kts | 244° |
| 2026-05-07 00:33 | 38.06408 | 23.68085 | 10093 ft | 301 kts | 239° |
| 2026-05-07 00:33 | 38.05101 | 23.66106 | 9746 ft | 289 kts | 222° |
| 2026-05-07 00:33 | 38.03536 | 23.64556 | 9257 ft | 282 kts | 216° |
| 2026-05-07 00:34 | 38.01950 | 23.63135 | 8749 ft | 276 kts | 215° |
| 2026-05-07 00:34 | 38.00324 | 23.61710 | 8517 ft | 293 kts | 215° |
| 2026-05-07 00:34 | 37.98679 | 23.60265 | 8462 ft | 286 kts | 215° |
| 2026-05-07 00:34 | 37.97066 | 23.58846 | 8655 ft | 286 kts | 215° |
| 2026-05-07 00:35 | 37.95424 | 23.57410 | 8711 ft | 287 kts | 215° |
| 2026-05-07 00:35 | 37.93782 | 23.55975 | 8560 ft | 287 kts | 215° |
| 2026-05-07 00:35 | 37.92144 | 23.54541 | 8391 ft | 286 kts | 215° |
| 2026-05-07 00:35 | 37.90513 | 23.53116 | 8187 ft | 284 kts | 215° |
| 2026-05-07 00:36 | 37.88887 | 23.51694 | 7998 ft | 283 kts | 214° |
| 2026-05-07 00:36 | 37.87267 | 23.50280 | 7797 ft | 282 kts | 215° |
| 2026-05-07 00:36 | 37.85653 | 23.48868 | 7596 ft | 281 kts | 215° |
| 2026-05-07 00:36 | 37.84015 | 23.47581 | 7393 ft | 281 kts | 205° |
| 2026-05-07 00:37 | 37.82136 | 23.46992 | 7184 ft | 280 kts | 182° |
| 2026-05-07 00:37 | 37.80230 | 23.47419 | 6981 ft | 280 kts | 158° |
| 2026-05-07 00:37 | 37.78616 | 23.48770 | 6784 ft | 280 kts | 135° |
| 2026-05-07 00:37 | 37.77544 | 23.50805 | 6590 ft | 280 kts | 113° |
| 2026-05-07 00:38 | 37.76923 | 23.53133 | 6396 ft | 279 kts | 107° |
| 2026-05-07 00:38 | 37.76362 | 23.55485 | 6198 ft | 279 kts | 107° |
| 2026-05-07 00:38 | 37.75787 | 23.57812 | 5997 ft | 277 kts | 108° |
| 2026-05-07 00:38 | 37.75205 | 23.60102 | 5806 ft | 277 kts | 108° |
| 2026-05-07 00:39 | 37.74611 | 23.62405 | 5611 ft | 276 kts | 109° |
| 2026-05-07 00:39 | 37.74016 | 23.64700 | 5421 ft | 274 kts | 108° |
| 2026-05-07 00:39 | 37.73436 | 23.66942 | 5251 ft | 264 kts | 108° |
| 2026-05-07 00:39 | 37.72873 | 23.69110 | 5052 ft | 255 kts | 109° |
| 2026-05-07 00:40 | 37.72517 | 23.71252 | 4834 ft | 246 kts | 90° |
| 2026-05-07 00:40 | 37.72915 | 23.73284 | 4612 ft | 236 kts | 60° |
| 2026-05-07 00:40 | 37.73949 | 23.74832 | 4411 ft | 227 kts | 41° |
| 2026-05-07 00:40 | 37.75169 | 23.76023 | 4256 ft | 213 kts | 35° |
| 2026-05-07 00:41 | 37.76337 | 23.77026 | 4114 ft | 200 kts | 34° |
| 2026-05-07 00:41 | 37.77461 | 23.78004 | 3882 ft | 193 kts | 35° |
| 2026-05-07 00:41 | 37.78537 | 23.78965 | 3658 ft | 185 kts | 37° |
| 2026-05-07 00:41 | 37.79547 | 23.79911 | 3431 ft | 177 kts | 37° |
| 2026-05-07 00:42 | 37.80502 | 23.80816 | 3187 ft | 169 kts | 37° |
| 2026-05-07 00:42 | 37.81397 | 23.81665 | 2935 ft | 151 kts | 37° |
| 2026-05-07 00:42 | 37.82219 | 23.82445 | 2730 ft | 147 kts | 38° |
| 2026-05-07 00:42 | 37.83028 | 23.83214 | 2529 ft | 144 kts | 38° |
| 2026-05-07 00:43 | 37.83814 | 23.83961 | 2362 ft | 142 kts | 38° |
| 2026-05-07 00:43 | 37.84601 | 23.84709 | 2167 ft | 141 kts | 38° |
| 2026-05-07 00:43 | 37.85384 | 23.85453 | 1990 ft | 140 kts | 37° |
| 2026-05-07 00:43 | 37.86159 | 23.86189 | 1803 ft | 139 kts | 37° |
| 2026-05-07 00:44 | 37.86931 | 23.86926 | 1628 ft | 139 kts | 37° |
| 2026-05-07 00:44 | 37.87702 | 23.87659 | 1445 ft | 138 kts | 37° |
| 2026-05-07 00:44 | 37.88471 | 23.88389 | 1261 ft | 137 kts | 37° |
| 2026-05-07 00:44 | 37.89235 | 23.89117 | 1076 ft | 137 kts | 37° |
| 2026-05-07 00:45 | 37.89987 | 23.89832 | 894 ft | 137 kts | 37° |
| 2026-05-07 00:45 | 37.90739 | 23.90557 | 712 ft | 136 kts | 37° |
| 2026-05-07 00:45 | 37.91491 | 23.91283 | 525 ft | 136 kts | 36° |
| 2026-05-07 00:45 | 37.92247 | 23.91987 | 367 ft | 135 kts | 37° |
| 2026-05-07 00:46 | 37.92988 | 23.92692 | 310 ft | 128 kts | 37° |
| 2026-05-07 00:46 | 37.93755 | 23.93437 | 644 ft | 156 kts | 38° |
| 2026-05-07 00:46 | 37.94651 | 23.94345 | 1567 ft | 171 kts | 39° |
| 2026-05-07 00:46 | 37.95651 | 23.95375 | 2511 ft | 201 kts | 39° |
| 2026-05-07 00:47 | 37.96757 | 23.96597 | 3364 ft | 214 kts | 50° |
| 2026-05-07 00:47 | 37.97390 | 23.98281 | 3789 ft | 219 kts | 79° |
| 2026-05-07 00:47 | 37.97285 | 24.00192 | 3955 ft | 220 kts | 111° |
| 2026-05-07 00:47 | 37.96442 | 24.01780 | 4006 ft | 218 kts | 140° |
| 2026-05-07 00:48 | 37.95102 | 24.02618 | 4008 ft | 216 kts | 171° |
| 2026-05-07 00:48 | 37.93625 | 24.02497 | 4007 ft | 215 kts | 200° |
| 2026-05-07 00:48 | 37.92336 | 24.01547 | 4011 ft | 215 kts | 217° |
| 2026-05-07 00:48 | 37.91178 | 24.00346 | 3999 ft | 215 kts | 220° |
| 2026-05-07 00:49 | 37.90038 | 23.99122 | 3996 ft | 215 kts | 220° |
| 2026-05-07 00:49 | 37.88899 | 23.97895 | 3996 ft | 215 kts | 220° |
| 2026-05-07 00:49 | 37.87755 | 23.96666 | 4002 ft | 215 kts | 220° |
| 2026-05-07 00:49 | 37.86629 | 23.95455 | 3994 ft | 215 kts | 220° |
| 2026-05-07 00:50 | 37.85490 | 23.94231 | 3840 ft | 214 kts | 220° |
| 2026-05-07 00:50 | 37.84353 | 23.93009 | 3523 ft | 216 kts | 220° |
| 2026-05-07 00:50 | 37.83203 | 23.91771 | 3150 ft | 219 kts | 220° |
| 2026-05-07 00:50 | 37.82037 | 23.90508 | 2763 ft | 223 kts | 220° |
| 2026-05-07 00:51 | 37.80854 | 23.89223 | 2361 ft | 225 kts | 220° |
| 2026-05-07 00:51 | 37.79706 | 23.87870 | 1970 ft | 227 kts | 231° |
| 2026-05-07 00:51 | 37.79066 | 23.86113 | 1791 ft | 216 kts | 261° |
| 2026-05-07 00:51 | 37.79140 | 23.84313 | 1762 ft | 198 kts | 287° |
| 2026-05-07 00:52 | 37.79758 | 23.82860 | 1768 ft | 190 kts | 311° |
| 2026-05-07 00:52 | 37.80790 | 23.81844 | 1778 ft | 188 kts | 335° |
| 2026-05-07 00:52 | 37.81961 | 23.81516 | 1795 ft | 161 kts | 9° |
| 2026-05-07 00:52 | 37.82853 | 23.82247 | 1799 ft | 157 kts | 50° |
| 2026-05-07 00:53 | 37.83536 | 23.83318 | 1811 ft | 157 kts | 49° |
| 2026-05-07 00:53 | 37.84301 | 23.84301 | 1808 ft | 156 kts | 43° |
| 2026-05-07 00:53 | 37.85127 | 23.85184 | 1800 ft | 149 kts | 38° |
| 2026-05-07 00:53 | 37.85911 | 23.85947 | 1798 ft | 140 kts | 37° |
| 2026-05-07 00:54 | 37.86676 | 23.86681 | 1685 ft | 139 kts | 37° |
| 2026-05-07 00:54 | 37.87447 | 23.87415 | 1510 ft | 138 kts | 37° |
| 2026-05-07 00:54 | 37.88211 | 23.88141 | 1327 ft | 137 kts | 37° |
| 2026-05-07 00:54 | 37.88972 | 23.88867 | 1145 ft | 137 kts | 37° |
| 2026-05-07 00:55 | 37.89733 | 23.89591 | 961 ft | 137 kts | 37° |
| 2026-05-07 00:55 | 37.90486 | 23.90306 | 732 ft | 135 kts | 37° |
| 2026-05-07 00:55 | 37.91232 | 23.91031 | 572 ft | 135 kts | 37° |
| 2026-05-07 00:55 | 37.91985 | 23.91740 | 400 ft | 135 kts | 36° |
| 2026-05-07 00:56 | 37.92717 | 23.92434 | 314 ft | 129 kts | 37° |
| 2026-05-07 00:56 | 37.93363 | 23.93046 | 294 ft | 92 kts | 36° |
| 2026-05-07 00:56 | 37.93701 | 23.93362 | 298 ft | 22 kts | 37° |
| 2026-05-07 00:56 | 37.93827 | 23.93494 | 300 ft | 25 kts | 47° |
| 2026-05-07 00:57 | 37.93927 | 23.93684 | 300 ft | 27 kts | 66° |
| 2026-05-07 00:57 | 37.93978 | 23.93833 | 304 ft | 14 kts | 66° |
| 2026-05-07 00:57 | 37.94029 | 23.93956 | 306 ft | 18 kts | 42° |
| 2026-05-07 00:57 | 37.94134 | 23.94055 | 307 ft | 20 kts | 38° |
| 2026-05-07 00:58 | 37.94250 | 23.94167 | 308 ft | 23 kts | 36° |
| 2026-05-07 00:58 | 37.94382 | 23.94294 | 308 ft | 25 kts | 37° |
| 2026-05-07 00:58 | 37.94527 | 23.94429 | 307 ft | 27 kts | 37° |
| 2026-05-07 00:58 | 37.94663 | 23.94562 | 309 ft | 19 kts | 43° |
| 2026-05-07 00:59 | 37.94648 | 23.94681 | 307 ft | 8 kts | 129° |
| 2026-05-07 00:59 | 37.94607 | 23.94750 | 307 ft | 11 kts | 126° |
| 2026-05-07 00:59 | 37.94557 | 23.94843 | 308 ft | 14 kts | 124° |
| 2026-05-07 01:00 | 37.94492 | 23.94956 | 306 ft | 17 kts | 127° |
| 2026-05-07 01:00 | 37.94412 | 23.95087 | 308 ft | 20 kts | 127° |
| 2026-05-07 01:00 | 37.94322 | 23.95240 | 306 ft | 23 kts | 127° |
| 2026-05-07 01:00 | 37.94222 | 23.95402 | 307 ft | 24 kts | 129° |
| 2026-05-07 01:01 | 37.94129 | 23.95550 | 306 ft | 6 kts | 135° |
| 2026-05-07 01:01 | 37.94086 | 23.95549 | 305 ft | 8 kts | 223° |
| 2026-05-07 01:01 | 37.94037 | 23.95506 | 305 ft | 10 kts | 217° |
| 2026-05-07 01:01 | 37.93971 | 23.95443 | 307 ft | 14 kts | 216° |
| 2026-05-07 01:02 | 37.93887 | 23.95363 | 307 ft | 17 kts | 218° |
| 2026-05-07 01:02 | 37.93786 | 23.95262 | 305 ft | 19 kts | 216° |
| 2026-05-07 01:02 | 37.93674 | 23.95157 | 305 ft | 21 kts | 218° |
| 2026-05-07 01:02 | 37.93559 | 23.95041 | 307 ft | 22 kts | 213° |
| 2026-05-07 01:03 | 37.93428 | 23.94932 | 306 ft | 23 kts | 214° |
| 2026-05-07 01:03 | 37.93298 | 23.94806 | 308 ft | 24 kts | 219° |
| 2026-05-07 01:03 | 37.93163 | 23.94672 | 306 ft | 25 kts | 215° |
| 2026-05-07 01:03 | 37.93019 | 23.94545 | 306 ft | 25 kts | 214° |
| 2026-05-07 01:04 | 37.92895 | 23.94418 | 307 ft | 15 kts | 223° |
| 2026-05-07 01:04 | 37.92898 | 23.94334 | 307 ft | 9 kts | 308° |
| 2026-05-07 01:04 | 37.92940 | 23.94267 | 307 ft | 10 kts | 308° |
| 2026-05-07 01:04 | 37.92983 | 23.94194 | 307 ft | 8 kts | 285° |
| 2026-05-07 01:05 | 37.92945 | 23.94143 | 307 ft | 9 kts | 220° |
| 2026-05-07 01:05 | 37.92918 | 23.94114 | 307 ft | 3 kts | 217° |
| 2026-05-07 01:05 | 37.92908 | 23.94104 | 307 ft | 2 kts | 217° |
| 2026-05-07 01:05 | 37.92906 | 23.94103 | 307 ft | 0 kts | 217° |